Main page
METAR-TAF:

METAR-TAF

Airports :

Bowman Field

Louisville, Kentucky, United States

latitude: 38-13-40N, longitude: 085-39-49W, elevation: 544 ft

Current weather observation

The report was made 53 minutes ago, at 10:53 UTC
Wind 5 mph from the South/Southeast
Temperature 34°F
Humidity 51%
Pressure 30.21 in. Hg
Visibility: 10 miles
Broken clouds at a height of 11000 ft

METAR: KLOU 231053Z AUTO 15004KT 10SM BKN110 01/M08 A3021 RMK AO2 SLP231 T00061078

Time: 06:46 (11:46 UTC)


TAF: missing

Weather observations and forecasts of more than 4000 airports (METAR and TAF reports).

The available stations are represented by yellow and red dots on the map.

Hover mouse over dot to see the name of the station.

Then click to see weather observations and forecasts.

To change the map : click on the green buttons with a black cross to zoom in, on the green button with a dash to zoom out, or on the green arrows for adjacent maps.


METAR-TAF: